sensor_id;sensor_type;location;lat;lon;timestamp;P1;durP1;ratioP1;P2;durP2;ratioP2
72109;SDS011;59983;52.010;5.420;2023-07-02T00:00:05;10.82;;;6.82;;
72109;SDS011;59983;52.010;5.420;2023-07-02T00:02:33;19.48;;;7.45;;
72109;SDS011;59983;52.010;5.420;2023-07-02T00:04:59;8.40;;;6.00;;
72109;SDS011;59983;52.010;5.420;2023-07-02T00:07:26;16.83;;;7.03;;
72109;SDS011;59983;52.010;5.420;2023-07-02T00:09:53;17.63;;;7.20;;
72109;SDS011;59983;52.010;5.420;2023-07-02T00:12:19;17.02;;;7.35;;
72109;SDS011;59983;52.010;5.420;2023-07-02T00:14:46;12.15;;;8.00;;
72109;SDS011;59983;52.010;5.420;2023-07-02T00:17:13;14.77;;;8.25;;
72109;SDS011;59983;52.010;5.420;2023-07-02T00:19:39;13.13;;;9.70;;
72109;SDS011;59983;52.010;5.420;2023-07-02T00:22:08;14.15;;;7.80;;
72109;SDS011;59983;52.010;5.420;2023-07-02T00:24:35;14.88;;;8.20;;
72109;SDS011;59983;52.010;5.420;2023-07-02T00:27:03;12.82;;;9.20;;
72109;SDS011;59983;52.010;5.420;2023-07-02T00:29:30;15.02;;;9.40;;
72109;SDS011;59983;52.010;5.420;2023-07-02T00:31:57;15.60;;;8.73;;
72109;SDS011;59983;52.010;5.420;2023-07-02T00:34:23;13.77;;;8.50;;
72109;SDS011;59983;52.010;5.420;2023-07-02T00:36:50;14.90;;;9.85;;
72109;SDS011;59983;52.010;5.420;2023-07-02T00:39:16;18.55;;;10.07;;
72109;SDS011;59983;52.010;5.420;2023-07-02T00:41:44;25.23;;;9.77;;
72109;SDS011;59983;52.010;5.420;2023-07-02T00:44:12;21.17;;;10.40;;
72109;SDS011;59983;52.010;5.420;2023-07-02T00:46:39;19.40;;;10.05;;
72109;SDS011;59983;52.010;5.420;2023-07-02T00:49:06;19.42;;;11.02;;
72109;SDS011;59983;52.010;5.420;2023-07-02T00:51:35;16.77;;;9.57;;
72109;SDS011;59983;52.010;5.420;2023-07-02T00:54:03;23.45;;;10.32;;
72109;SDS011;59983;52.010;5.420;2023-07-02T00:56:30;24.27;;;10.10;;
72109;SDS011;59983;52.010;5.420;2023-07-02T00:58:56;23.88;;;11.60;;
72109;SDS011;59983;52.010;5.420;2023-07-02T01:01:25;15.82;;;10.02;;
72109;SDS011;59983;52.010;5.420;2023-07-02T01:03:58;14.50;;;10.52;;
72109;SDS011;59983;52.010;5.420;2023-07-02T01:06:27;18.70;;;8.68;;
72109;SDS011;59983;52.010;5.420;2023-07-02T01:08:58;17.50;;;10.90;;
72109;SDS011;59983;52.010;5.420;2023-07-02T01:11:37;18.85;;;9.38;;
72109;SDS011;59983;52.010;5.420;2023-07-02T01:14:13;13.93;;;9.13;;
72109;SDS011;59983;52.010;5.420;2023-07-02T01:16:43;21.13;;;10.80;;
72109;SDS011;59983;52.010;5.420;2023-07-02T01:19:11;14.77;;;9.82;;
72109;SDS011;59983;52.010;5.420;2023-07-02T01:21:46;14.13;;;9.67;;
72109;SDS011;59983;52.010;5.420;2023-07-02T01:24:13;14.18;;;9.98;;
72109;SDS011;59983;52.010;5.420;2023-07-02T01:26:41;12.70;;;9.23;;
72109;SDS011;59983;52.010;5.420;2023-07-02T01:31:44;18.75;;;9.68;;
72109;SDS011;59983;52.010;5.420;2023-07-02T01:34:11;12.53;;;9.77;;
72109;SDS011;59983;52.010;5.420;2023-07-02T01:36:38;16.35;;;9.90;;
72109;SDS011;59983;52.010;5.420;2023-07-02T01:39:05;14.05;;;10.00;;
72109;SDS011;59983;52.010;5.420;2023-07-02T01:41:43;14.63;;;10.27;;
72109;SDS011;59983;52.010;5.420;2023-07-02T01:44:11;17.75;;;9.48;;
72109;SDS011;59983;52.010;5.420;2023-07-02T01:46:38;15.63;;;10.13;;
72109;SDS011;59983;52.010;5.420;2023-07-02T01:49:05;25.08;;;10.90;;
72109;SDS011;59983;52.010;5.420;2023-07-02T01:51:32;17.27;;;9.82;;
72109;SDS011;59983;52.010;5.420;2023-07-02T01:53:59;16.73;;;11.02;;
72109;SDS011;59983;52.010;5.420;2023-07-02T01:56:26;21.02;;;9.85;;
72109;SDS011;59983;52.010;5.420;2023-07-02T01:58:54;13.33;;;9.47;;
72109;SDS011;59983;52.010;5.420;2023-07-02T02:01:20;16.60;;;9.27;;
72109;SDS011;59983;52.010;5.420;2023-07-02T02:03:47;13.73;;;9.52;;
72109;SDS011;59983;52.010;5.420;2023-07-02T02:06:14;11.25;;;8.48;;
72109;SDS011;59983;52.010;5.420;2023-07-02T02:08:40;16.77;;;9.65;;
72109;SDS011;59983;52.010;5.420;2023-07-02T02:11:07;14.57;;;9.10;;
72109;SDS011;59983;52.010;5.420;2023-07-02T02:13:34;13.93;;;9.30;;
72109;SDS011;59983;52.010;5.420;2023-07-02T02:16:01;9.45;;;8.30;;
72109;SDS011;59983;52.010;5.420;2023-07-02T02:18:27;10.80;;;9.23;;
72109;SDS011;59983;52.010;5.420;2023-07-02T02:20:54;10.27;;;9.07;;
72109;SDS011;59983;52.010;5.420;2023-07-02T02:23:20;10.77;;;9.47;;
72109;SDS011;59983;52.010;5.420;2023-07-02T02:25:47;11.90;;;9.27;;
72109;SDS011;59983;52.010;5.420;2023-07-02T02:28:14;10.07;;;8.48;;
72109;SDS011;59983;52.010;5.420;2023-07-02T02:30:40;10.77;;;8.95;;
72109;SDS011;59983;52.010;5.420;2023-07-02T02:33:07;13.73;;;10.02;;
72109;SDS011;59983;52.010;5.420;2023-07-02T02:35:33;15.70;;;10.17;;
72109;SDS011;59983;52.010;5.420;2023-07-02T02:38:03;13.43;;;10.40;;
72109;SDS011;59983;52.010;5.420;2023-07-02T02:40:30;13.45;;;10.23;;
72109;SDS011;59983;52.010;5.420;2023-07-02T02:42:57;12.23;;;9.10;;
72109;SDS011;59983;52.010;5.420;2023-07-02T02:45:23;14.23;;;10.20;;
72109;SDS011;59983;52.010;5.420;2023-07-02T02:47:50;11.70;;;10.03;;
72109;SDS011;59983;52.010;5.420;2023-07-02T02:50:17;14.45;;;10.52;;
72109;SDS011;59983;52.010;5.420;2023-07-02T02:52:43;13.27;;;10.60;;
72109;SDS011;59983;52.010;5.420;2023-07-02T02:55:11;12.88;;;9.38;;
72109;SDS011;59983;52.010;5.420;2023-07-02T02:57:38;22.80;;;9.75;;
72109;SDS011;59983;52.010;5.420;2023-07-02T03:00:05;16.53;;;10.73;;
72109;SDS011;59983;52.010;5.420;2023-07-02T03:02:33;16.23;;;9.82;;
72109;SDS011;59983;52.010;5.420;2023-07-02T03:04:59;13.57;;;8.82;;
72109;SDS011;59983;52.010;5.420;2023-07-02T03:07:29;17.83;;;9.82;;
72109;SDS011;59983;52.010;5.420;2023-07-02T03:09:55;13.48;;;9.38;;
72109;SDS011;59983;52.010;5.420;2023-07-02T03:12:22;12.30;;;8.87;;
72109;SDS011;59983;52.010;5.420;2023-07-02T03:14:52;17.20;;;9.63;;
72109;SDS011;59983;52.010;5.420;2023-07-02T03:17:21;19.00;;;9.32;;
72109;SDS011;59983;52.010;5.420;2023-07-02T03:19:47;10.90;;;8.65;;
72109;SDS011;59983;52.010;5.420;2023-07-02T03:22:14;17.88;;;9.63;;
72109;SDS011;59983;52.010;5.420;2023-07-02T03:24:41;13.67;;;9.37;;
72109;SDS011;59983;52.010;5.420;2023-07-02T03:27:08;14.18;;;8.43;;
72109;SDS011;59983;52.010;5.420;2023-07-02T03:29:34;12.70;;;9.23;;
72109;SDS011;59983;52.010;5.420;2023-07-02T03:32:02;17.08;;;9.43;;
72109;SDS011;59983;52.010;5.420;2023-07-02T03:34:28;17.50;;;9.45;;
72109;SDS011;59983;52.010;5.420;2023-07-02T03:36:55;19.77;;;10.70;;
72109;SDS011;59983;52.010;5.420;2023-07-02T03:39:22;14.52;;;10.20;;
72109;SDS011;59983;52.010;5.420;2023-07-02T03:41:48;16.30;;;9.82;;
72109;SDS011;59983;52.010;5.420;2023-07-02T03:44:15;18.98;;;10.07;;
72109;SDS011;59983;52.010;5.420;2023-07-02T03:46:42;19.38;;;9.90;;
72109;SDS011;59983;52.010;5.420;2023-07-02T03:49:09;15.97;;;8.90;;
72109;SDS011;59983;52.010;5.420;2023-07-02T03:51:36;18.00;;;9.95;;
72109;SDS011;59983;52.010;5.420;2023-07-02T03:54:02;15.00;;;9.02;;
72109;SDS011;59983;52.010;5.420;2023-07-02T03:56:29;16.60;;;8.65;;
72109;SDS011;59983;52.010;5.420;2023-07-02T03:58:55;15.00;;;9.10;;
72109;SDS011;59983;52.010;5.420;2023-07-02T04:01:22;17.17;;;10.47;;
72109;SDS011;59983;52.010;5.420;2023-07-02T04:03:49;15.10;;;8.65;;
72109;SDS011;59983;52.010;5.420;2023-07-02T04:06:16;16.98;;;9.48;;
72109;SDS011;59983;52.010;5.420;2023-07-02T04:08:43;17.52;;;10.90;;
72109;SDS011;59983;52.010;5.420;2023-07-02T04:11:11;19.25;;;10.25;;
72109;SDS011;59983;52.010;5.420;2023-07-02T04:13:38;13.23;;;8.43;;
72109;SDS011;59983;52.010;5.420;2023-07-02T04:16:05;19.27;;;9.90;;
72109;SDS011;59983;52.010;5.420;2023-07-02T04:18:32;15.43;;;8.82;;
72109;SDS011;59983;52.010;5.420;2023-07-02T04:21:00;18.85;;;10.50;;
72109;SDS011;59983;52.010;5.420;2023-07-02T04:23:27;16.17;;;9.82;;
72109;SDS011;59983;52.010;5.420;2023-07-02T04:25:54;17.80;;;9.77;;
72109;SDS011;59983;52.010;5.420;2023-07-02T04:28:40;23.15;;;10.50;;
72109;SDS011;59983;52.010;5.420;2023-07-02T04:31:07;19.00;;;10.38;;
72109;SDS011;59983;52.010;5.420;2023-07-02T04:33:33;21.02;;;10.63;;
72109;SDS011;59983;52.010;5.420;2023-07-02T04:36:03;17.13;;;9.93;;
72109;SDS011;59983;52.010;5.420;2023-07-02T04:38:29;23.77;;;10.97;;
72109;SDS011;59983;52.010;5.420;2023-07-02T04:40:56;18.60;;;10.57;;
72109;SDS011;59983;52.010;5.420;2023-07-02T04:43:31;18.52;;;10.52;;
72109;SDS011;59983;52.010;5.420;2023-07-02T04:46:00;17.30;;;10.18;;
72109;SDS011;59983;52.010;5.420;2023-07-02T04:48:27;18.35;;;9.90;;
72109;SDS011;59983;52.010;5.420;2023-07-02T04:50:54;16.13;;;9.70;;
72109;SDS011;59983;52.010;5.420;2023-07-02T04:53:20;17.73;;;10.35;;
72109;SDS011;59983;52.010;5.420;2023-07-02T04:55:47;18.90;;;9.75;;
72109;SDS011;59983;52.010;5.420;2023-07-02T04:58:13;16.83;;;9.70;;
72109;SDS011;59983;52.010;5.420;2023-07-02T05:00:40;18.67;;;9.75;;
72109;SDS011;59983;52.010;5.420;2023-07-02T05:03:06;20.80;;;11.50;;
72109;SDS011;59983;52.010;5.420;2023-07-02T05:05:33;15.68;;;9.00;;
72109;SDS011;59983;52.010;5.420;2023-07-02T05:08:00;20.90;;;10.40;;
72109;SDS011;59983;52.010;5.420;2023-07-02T05:10:26;24.85;;;10.35;;
72109;SDS011;59983;52.010;5.420;2023-07-02T05:12:53;28.10;;;11.00;;
72109;SDS011;59983;52.010;5.420;2023-07-02T05:15:19;26.77;;;10.60;;
72109;SDS011;59983;52.010;5.420;2023-07-02T05:17:46;19.92;;;10.25;;
72109;SDS011;59983;52.010;5.420;2023-07-02T05:20:12;27.58;;;9.23;;
72109;SDS011;59983;52.010;5.420;2023-07-02T05:22:39;21.65;;;9.50;;
72109;SDS011;59983;52.010;5.420;2023-07-02T05:25:06;16.75;;;10.02;;
72109;SDS011;59983;52.010;5.420;2023-07-02T05:27:32;20.63;;;9.77;;
72109;SDS011;59983;52.010;5.420;2023-07-02T05:29:59;22.30;;;9.82;;
72109;SDS011;59983;52.010;5.420;2023-07-02T05:32:26;18.75;;;9.55;;
72109;SDS011;59983;52.010;5.420;2023-07-02T05:34:52;21.77;;;10.40;;
72109;SDS011;59983;52.010;5.420;2023-07-02T05:37:19;18.15;;;9.63;;
72109;SDS011;59983;52.010;5.420;2023-07-02T05:39:45;25.30;;;10.33;;
72109;SDS011;59983;52.010;5.420;2023-07-02T05:42:12;23.20;;;10.98;;
72109;SDS011;59983;52.010;5.420;2023-07-02T05:44:39;19.95;;;9.63;;
72109;SDS011;59983;52.010;5.420;2023-07-02T05:47:06;21.52;;;9.23;;
72109;SDS011;59983;52.010;5.420;2023-07-02T05:49:33;16.02;;;8.25;;
72109;SDS011;59983;52.010;5.420;2023-07-02T05:51:59;19.73;;;9.77;;
72109;SDS011;59983;52.010;5.420;2023-07-02T05:54:26;16.83;;;9.05;;
72109;SDS011;59983;52.010;5.420;2023-07-02T05:56:52;22.40;;;9.15;;
72109;SDS011;59983;52.010;5.420;2023-07-02T05:59:19;20.23;;;9.68;;
72109;SDS011;59983;52.010;5.420;2023-07-02T06:01:45;20.27;;;9.65;;
72109;SDS011;59983;52.010;5.420;2023-07-02T06:04:12;20.40;;;9.87;;
72109;SDS011;59983;52.010;5.420;2023-07-02T06:06:39;27.55;;;10.00;;
72109;SDS011;59983;52.010;5.420;2023-07-02T06:09:05;22.65;;;7.85;;
72109;SDS011;59983;52.010;5.420;2023-07-02T06:11:32;16.58;;;9.90;;
72109;SDS011;59983;52.010;5.420;2023-07-02T06:13:58;19.20;;;9.77;;
72109;SDS011;59983;52.010;5.420;2023-07-02T06:16:25;16.93;;;8.70;;
72109;SDS011;59983;52.010;5.420;2023-07-02T06:18:52;16.58;;;7.63;;
72109;SDS011;59983;52.010;5.420;2023-07-02T06:21:18;17.98;;;8.35;;
72109;SDS011;59983;52.010;5.420;2023-07-02T06:23:46;13.48;;;7.80;;
72109;SDS011;59983;52.010;5.420;2023-07-02T06:26:13;24.35;;;8.50;;
72109;SDS011;59983;52.010;5.420;2023-07-02T06:28:39;17.03;;;8.40;;
72109;SDS011;59983;52.010;5.420;2023-07-02T06:31:06;20.98;;;8.00;;
72109;SDS011;59983;52.010;5.420;2023-07-02T06:33:32;13.70;;;6.88;;
72109;SDS011;59983;52.010;5.420;2023-07-02T06:35:59;16.30;;;8.60;;
72109;SDS011;59983;52.010;5.420;2023-07-02T06:38:25;17.55;;;8.00;;
72109;SDS011;59983;52.010;5.420;2023-07-02T06:40:52;14.20;;;7.60;;
72109;SDS011;59983;52.010;5.420;2023-07-02T06:43:19;21.50;;;8.77;;
72109;SDS011;59983;52.010;5.420;2023-07-02T06:45:45;20.05;;;6.88;;
72109;SDS011;59983;52.010;5.420;2023-07-02T06:48:12;20.80;;;7.97;;
72109;SDS011;59983;52.010;5.420;2023-07-02T06:50:42;19.13;;;6.85;;
72109;SDS011;59983;52.010;5.420;2023-07-02T06:53:12;13.97;;;6.37;;
72109;SDS011;59983;52.010;5.420;2023-07-02T06:55:39;22.25;;;7.97;;
72109;SDS011;59983;52.010;5.420;2023-07-02T06:58:05;12.63;;;7.53;;
72109;SDS011;59983;52.010;5.420;2023-07-02T07:00:32;17.05;;;8.00;;
72109;SDS011;59983;52.010;5.420;2023-07-02T07:03:05;10.65;;;7.20;;
72109;SDS011;59983;52.010;5.420;2023-07-02T07:05:32;13.33;;;7.13;;
72109;SDS011;59983;52.010;5.420;2023-07-02T07:07:59;13.75;;;6.97;;
72109;SDS011;59983;52.010;5.420;2023-07-02T07:10:29;15.32;;;6.63;;
72109;SDS011;59983;52.010;5.420;2023-07-02T07:13:03;12.48;;;6.93;;
72109;SDS011;59983;52.010;5.420;2023-07-02T07:15:32;14.07;;;7.47;;
72109;SDS011;59983;52.010;5.420;2023-07-02T07:18:00;16.90;;;6.77;;
72109;SDS011;59983;52.010;5.420;2023-07-02T07:20:28;12.43;;;6.15;;
72109;SDS011;59983;52.010;5.420;2023-07-02T07:22:55;18.73;;;7.57;;
72109;SDS011;59983;52.010;5.420;2023-07-02T07:25:22;15.10;;;7.20;;
72109;SDS011;59983;52.010;5.420;2023-07-02T07:27:48;15.13;;;7.95;;
72109;SDS011;59983;52.010;5.420;2023-07-02T07:30:15;11.03;;;6.33;;
72109;SDS011;59983;52.010;5.420;2023-07-02T07:32:41;10.20;;;6.80;;
72109;SDS011;59983;52.010;5.420;2023-07-02T07:35:08;10.57;;;6.45;;
72109;SDS011;59983;52.010;5.420;2023-07-02T07:37:35;15.00;;;6.53;;
72109;SDS011;59983;52.010;5.420;2023-07-02T07:40:03;15.35;;;6.22;;
72109;SDS011;59983;52.010;5.420;2023-07-02T07:42:32;12.43;;;6.77;;
72109;SDS011;59983;52.010;5.420;2023-07-02T07:44:58;14.15;;;5.55;;
72109;SDS011;59983;52.010;5.420;2023-07-02T07:47:25;10.77;;;6.70;;
72109;SDS011;59983;52.010;5.420;2023-07-02T07:49:51;15.05;;;6.45;;
72109;SDS011;59983;52.010;5.420;2023-07-02T07:52:18;10.63;;;5.47;;
72109;SDS011;59983;52.010;5.420;2023-07-02T07:54:45;11.17;;;6.53;;
72109;SDS011;59983;52.010;5.420;2023-07-02T07:57:11;9.75;;;5.35;;
72109;SDS011;59983;52.010;5.420;2023-07-02T07:59:38;8.77;;;5.78;;
72109;SDS011;59983;52.010;5.420;2023-07-02T08:02:05;9.77;;;5.35;;
72109;SDS011;59983;52.010;5.420;2023-07-02T08:04:32;9.30;;;5.88;;
72109;SDS011;59983;52.010;5.420;2023-07-02T08:06:58;15.50;;;6.53;;
72109;SDS011;59983;52.010;5.420;2023-07-02T08:09:25;20.08;;;5.80;;
72109;SDS011;59983;52.010;5.420;2023-07-02T08:11:51;7.85;;;5.60;;
72109;SDS011;59983;52.010;5.420;2023-07-02T08:14:18;8.80;;;5.60;;
72109;SDS011;59983;52.010;5.420;2023-07-02T08:16:45;10.75;;;5.88;;
72109;SDS011;59983;52.010;5.420;2023-07-02T08:19:12;8.07;;;6.30;;
72109;SDS011;59983;52.010;5.420;2023-07-02T08:21:38;13.20;;;6.72;;
72109;SDS011;59983;52.010;5.420;2023-07-02T08:24:05;10.60;;;5.78;;
72109;SDS011;59983;52.010;5.420;2023-07-02T08:26:32;10.10;;;5.95;;
72109;SDS011;59983;52.010;5.420;2023-07-02T08:28:59;10.23;;;6.28;;
72109;SDS011;59983;52.010;5.420;2023-07-02T08:31:26;12.17;;;6.20;;
72109;SDS011;59983;52.010;5.420;2023-07-02T08:33:52;12.45;;;5.63;;
72109;SDS011;59983;52.010;5.420;2023-07-02T08:36:19;9.02;;;5.07;;
72109;SDS011;59983;52.010;5.420;2023-07-02T08:38:45;6.90;;;5.05;;
72109;SDS011;59983;52.010;5.420;2023-07-02T08:41:12;10.73;;;5.35;;
72109;SDS011;59983;52.010;5.420;2023-07-02T08:43:38;11.80;;;5.80;;
72109;SDS011;59983;52.010;5.420;2023-07-02T08:46:06;9.45;;;5.85;;
72109;SDS011;59983;52.010;5.420;2023-07-02T08:48:36;7.82;;;4.45;;
72109;SDS011;59983;52.010;5.420;2023-07-02T08:51:03;13.70;;;5.90;;
72109;SDS011;59983;52.010;5.420;2023-07-02T08:53:29;13.57;;;5.35;;
72109;SDS011;59983;52.010;5.420;2023-07-02T08:56:00;9.20;;;5.00;;
72109;SDS011;59983;52.010;5.420;2023-07-02T08:58:27;8.35;;;4.63;;
72109;SDS011;59983;52.010;5.420;2023-07-02T09:01:03;9.90;;;6.10;;
72109;SDS011;59983;52.010;5.420;2023-07-02T09:03:34;6.05;;;4.55;;
72109;SDS011;59983;52.010;5.420;2023-07-02T09:06:04;10.38;;;3.97;;
72109;SDS011;59983;52.010;5.420;2023-07-02T09:08:31;8.20;;;4.20;;
72109;SDS011;59983;52.010;5.420;2023-07-02T09:11:10;11.38;;;4.43;;
72109;SDS011;59983;52.010;5.420;2023-07-02T09:13:50;12.10;;;4.88;;
72109;SDS011;59983;52.010;5.420;2023-07-02T09:16:29;10.40;;;4.35;;
72109;SDS011;59983;52.010;5.420;2023-07-02T09:19:01;6.90;;;3.95;;
72109;SDS011;59983;52.010;5.420;2023-07-02T09:24:21;10.30;;;4.05;;
72109;SDS011;59983;52.010;5.420;2023-07-02T09:26:50;4.75;;;3.50;;
72109;SDS011;59983;52.010;5.420;2023-07-02T09:29:24;9.90;;;3.90;;
72109;SDS011;59983;52.010;5.420;2023-07-02T09:31:51;8.43;;;3.97;;
72109;SDS011;59983;52.010;5.420;2023-07-02T09:34:36;5.27;;;3.60;;
72109;SDS011;59983;52.010;5.420;2023-07-02T09:37:04;9.38;;;3.38;;
72109;SDS011;59983;52.010;5.420;2023-07-02T09:39:33;5.10;;;3.28;;
72109;SDS011;59983;52.010;5.420;2023-07-02T09:42:01;9.27;;;3.13;;
72109;SDS011;59983;52.010;5.420;2023-07-02T09:44:31;7.43;;;4.00;;
72109;SDS011;59983;52.010;5.420;2023-07-02T09:47:04;7.20;;;3.93;;
72109;SDS011;59983;52.010;5.420;2023-07-02T09:49:36;9.35;;;4.20;;
72109;SDS011;59983;52.010;5.420;2023-07-02T09:52:11;9.55;;;4.30;;
72109;SDS011;59983;52.010;5.420;2023-07-02T09:54:38;6.28;;;4.32;;
72109;SDS011;59983;52.010;5.420;2023-07-02T09:57:05;11.57;;;4.60;;
72109;SDS011;59983;52.010;5.420;2023-07-02T09:59:35;5.50;;;4.20;;
72109;SDS011;59983;52.010;5.420;2023-07-02T10:02:02;4.10;;;3.67;;
72109;SDS011;59983;52.010;5.420;2023-07-02T10:04:38;7.10;;;3.97;;
72109;SDS011;59983;52.010;5.420;2023-07-02T10:07:07;7.85;;;4.45;;
72109;SDS011;59983;52.010;5.420;2023-07-02T10:09:44;7.78;;;3.80;;
72109;SDS011;59983;52.010;5.420;2023-07-02T10:12:21;6.07;;;4.20;;
72109;SDS011;59983;52.010;5.420;2023-07-02T10:14:49;6.90;;;4.03;;
72109;SDS011;59983;52.010;5.420;2023-07-02T10:19:58;5.35;;;3.95;;
72109;SDS011;59983;52.010;5.420;2023-07-02T10:22:26;6.78;;;3.90;;
72109;SDS011;59983;52.010;5.420;2023-07-02T10:24:57;7.37;;;4.17;;
72109;SDS011;59983;52.010;5.420;2023-07-02T10:27:34;7.05;;;4.43;;
72109;SDS011;59983;52.010;5.420;2023-07-02T10:30:04;5.13;;;3.15;;
72109;SDS011;59983;52.010;5.420;2023-07-02T10:32:33;3.85;;;3.45;;
72109;SDS011;59983;52.010;5.420;2023-07-02T10:35:22;6.30;;;3.55;;
72109;SDS011;59983;52.010;5.420;2023-07-02T10:37:47;6.37;;;3.63;;
72109;SDS011;59983;52.010;5.420;2023-07-02T10:40:14;3.88;;;3.03;;
72109;SDS011;59983;52.010;5.420;2023-07-02T10:42:44;3.72;;;3.30;;
72109;SDS011;59983;52.010;5.420;2023-07-02T10:45:15;6.57;;;3.22;;
72109;SDS011;59983;52.010;5.420;2023-07-02T10:47:42;3.65;;;3.28;;
72109;SDS011;59983;52.010;5.420;2023-07-02T10:50:19;4.50;;;3.33;;
72109;SDS011;59983;52.010;5.420;2023-07-02T10:52:47;5.22;;;3.30;;
72109;SDS011;59983;52.010;5.420;2023-07-02T10:55:20;4.32;;;3.10;;
72109;SDS011;59983;52.010;5.420;2023-07-02T10:57:48;4.10;;;3.28;;
72109;SDS011;59983;52.010;5.420;2023-07-02T11:00:19;5.70;;;3.58;;
72109;SDS011;59983;52.010;5.420;2023-07-02T11:02:46;4.37;;;3.07;;
72109;SDS011;59983;52.010;5.420;2023-07-02T11:05:13;4.72;;;4.28;;
72109;SDS011;59983;52.010;5.420;2023-07-02T11:07:41;5.05;;;3.30;;
72109;SDS011;59983;52.010;5.420;2023-07-02T11:10:08;6.60;;;3.70;;
72109;SDS011;59983;52.010;5.420;2023-07-02T11:12:35;9.45;;;3.95;;
72109;SDS011;59983;52.010;5.420;2023-07-02T11:17:36;6.45;;;4.00;;
72109;SDS011;59983;52.010;5.420;2023-07-02T11:20:04;6.70;;;4.55;;
72109;SDS011;59983;52.010;5.420;2023-07-02T11:22:32;5.53;;;3.45;;
72109;SDS011;59983;52.010;5.420;2023-07-02T11:25:18;4.47;;;3.80;;
72109;SDS011;59983;52.010;5.420;2023-07-02T11:27:48;4.20;;;3.77;;
72109;SDS011;59983;52.010;5.420;2023-07-02T11:30:15;6.15;;;3.47;;
72109;SDS011;59983;52.010;5.420;2023-07-02T11:32:48;6.65;;;3.50;;
72109;SDS011;59983;52.010;5.420;2023-07-02T11:35:19;6.72;;;3.60;;
72109;SDS011;59983;52.010;5.420;2023-07-02T11:37:47;5.40;;;3.70;;
72109;SDS011;59983;52.010;5.420;2023-07-02T11:40:18;7.03;;;3.97;;
72109;SDS011;59983;52.010;5.420;2023-07-02T11:42:45;6.03;;;3.92;;
72109;SDS011;59983;52.010;5.420;2023-07-02T11:45:12;6.20;;;3.25;;
72109;SDS011;59983;52.010;5.420;2023-07-02T11:47:38;6.35;;;3.25;;
72109;SDS011;59983;52.010;5.420;2023-07-02T11:50:05;10.73;;;4.30;;
72109;SDS011;59983;52.010;5.420;2023-07-02T11:52:50;6.27;;;3.00;;
72109;SDS011;59983;52.010;5.420;2023-07-02T11:55:16;8.95;;;3.67;;
72109;SDS011;59983;52.010;5.420;2023-07-02T11:57:43;6.75;;;3.95;;
72109;SDS011;59983;52.010;5.420;2023-07-02T12:00:10;4.50;;;3.47;;
72109;SDS011;59983;52.010;5.420;2023-07-02T12:02:37;4.78;;;3.65;;
72109;SDS011;59983;52.010;5.420;2023-07-02T12:05:04;4.03;;;3.70;;
72109;SDS011;59983;52.010;5.420;2023-07-02T12:07:34;5.43;;;3.83;;
72109;SDS011;59983;52.010;5.420;2023-07-02T12:10:01;6.07;;;3.65;;
72109;SDS011;59983;52.010;5.420;2023-07-02T12:12:28;7.28;;;4.00;;
72109;SDS011;59983;52.010;5.420;2023-07-02T12:14:54;5.55;;;3.55;;
72109;SDS011;59983;52.010;5.420;2023-07-02T12:17:21;7.90;;;3.77;;
72109;SDS011;59983;52.010;5.420;2023-07-02T12:19:47;6.53;;;4.25;;
72109;SDS011;59983;52.010;5.420;2023-07-02T12:22:14;7.50;;;4.10;;
72109;SDS011;59983;52.010;5.420;2023-07-02T12:24:43;6.28;;;3.58;;
72109;SDS011;59983;52.010;5.420;2023-07-02T12:27:10;4.25;;;3.85;;
72109;SDS011;59983;52.010;5.420;2023-07-02T12:29:37;8.33;;;3.70;;
72109;SDS011;59983;52.010;5.420;2023-07-02T12:32:04;6.63;;;3.72;;
72109;SDS011;59983;52.010;5.420;2023-07-02T12:34:31;6.95;;;3.50;;
72109;SDS011;59983;52.010;5.420;2023-07-02T12:36:58;6.00;;;3.55;;
72109;SDS011;59983;52.010;5.420;2023-07-02T12:39:24;7.00;;;3.33;;
72109;SDS011;59983;52.010;5.420;2023-07-02T12:41:51;5.37;;;3.57;;
72109;SDS011;59983;52.010;5.420;2023-07-02T12:44:18;8.45;;;3.88;;
72109;SDS011;59983;52.010;5.420;2023-07-02T12:46:44;4.65;;;4.03;;
72109;SDS011;59983;52.010;5.420;2023-07-02T12:49:11;6.82;;;4.25;;
72109;SDS011;59983;52.010;5.420;2023-07-02T12:51:38;6.03;;;3.58;;
72109;SDS011;59983;52.010;5.420;2023-07-02T12:54:04;5.10;;;3.53;;
72109;SDS011;59983;52.010;5.420;2023-07-02T12:56:31;5.38;;;3.45;;
72109;SDS011;59983;52.010;5.420;2023-07-02T12:58:57;4.68;;;3.30;;
72109;SDS011;59983;52.010;5.420;2023-07-02T13:01:33;10.82;;;4.00;;
72109;SDS011;59983;52.010;5.420;2023-07-02T13:03:59;8.23;;;3.88;;
72109;SDS011;59983;52.010;5.420;2023-07-02T13:06:27;6.90;;;3.80;;
72109;SDS011;59983;52.010;5.420;2023-07-02T13:08:54;5.57;;;3.67;;
72109;SDS011;59983;52.010;5.420;2023-07-02T13:11:22;8.70;;;3.70;;
72109;SDS011;59983;52.010;5.420;2023-07-02T13:13:48;6.72;;;3.92;;
72109;SDS011;59983;52.010;5.420;2023-07-02T13:16:15;6.50;;;3.55;;
72109;SDS011;59983;52.010;5.420;2023-07-02T13:18:41;7.60;;;4.23;;
72109;SDS011;59983;52.010;5.420;2023-07-02T13:21:08;5.85;;;3.60;;
72109;SDS011;59983;52.010;5.420;2023-07-02T13:23:34;6.00;;;3.67;;
72109;SDS011;59983;52.010;5.420;2023-07-02T13:26:01;9.55;;;3.65;;
72109;SDS011;59983;52.010;5.420;2023-07-02T13:28:27;12.75;;;3.17;;
72109;SDS011;59983;52.010;5.420;2023-07-02T13:30:54;6.07;;;3.27;;
72109;SDS011;59983;52.010;5.420;2023-07-02T13:33:21;10.65;;;3.30;;
72109;SDS011;59983;52.010;5.420;2023-07-02T13:35:47;12.18;;;3.80;;
72109;SDS011;59983;52.010;5.420;2023-07-02T13:38:14;5.78;;;3.83;;
72109;SDS011;59983;52.010;5.420;2023-07-02T13:40:41;7.82;;;3.85;;
72109;SDS011;59983;52.010;5.420;2023-07-02T13:43:07;5.43;;;3.63;;
72109;SDS011;59983;52.010;5.420;2023-07-02T13:45:34;8.50;;;4.63;;
72109;SDS011;59983;52.010;5.420;2023-07-02T13:48:00;14.38;;;4.45;;
72109;SDS011;59983;52.010;5.420;2023-07-02T13:50:27;20.50;;;4.55;;
72109;SDS011;59983;52.010;5.420;2023-07-02T13:52:54;8.98;;;4.10;;
72109;SDS011;59983;52.010;5.420;2023-07-02T13:55:20;9.07;;;4.00;;
72109;SDS011;59983;52.010;5.420;2023-07-02T13:57:53;8.85;;;4.03;;
72109;SDS011;59983;52.010;5.420;2023-07-02T14:00:21;5.82;;;3.88;;
72109;SDS011;59983;52.010;5.420;2023-07-02T14:02:48;6.50;;;3.38;;
72109;SDS011;59983;52.010;5.420;2023-07-02T14:05:15;10.35;;;3.58;;
72109;SDS011;59983;52.010;5.420;2023-07-02T14:07:42;14.20;;;4.43;;
72109;SDS011;59983;52.010;5.420;2023-07-02T14:10:08;8.18;;;3.92;;
72109;SDS011;59983;52.010;5.420;2023-07-02T14:12:35;10.00;;;4.20;;
72109;SDS011;59983;52.010;5.420;2023-07-02T14:15:02;11.48;;;3.92;;
72109;SDS011;59983;52.010;5.420;2023-07-02T14:17:28;10.10;;;4.65;;
72109;SDS011;59983;52.010;5.420;2023-07-02T14:19:55;13.57;;;4.27;;
72109;SDS011;59983;52.010;5.420;2023-07-02T14:22:22;9.13;;;4.03;;
72109;SDS011;59983;52.010;5.420;2023-07-02T14:24:48;11.40;;;4.93;;
72109;SDS011;59983;52.010;5.420;2023-07-02T14:27:15;16.70;;;4.60;;
72109;SDS011;59983;52.010;5.420;2023-07-02T14:29:41;7.70;;;4.90;;
72109;SDS011;59983;52.010;5.420;2023-07-02T14:32:08;18.13;;;5.43;;
72109;SDS011;59983;52.010;5.420;2023-07-02T14:34:35;10.50;;;4.85;;
72109;SDS011;59983;52.010;5.420;2023-07-02T14:37:02;10.07;;;4.45;;
72109;SDS011;59983;52.010;5.420;2023-07-02T14:39:29;16.52;;;5.53;;
72109;SDS011;59983;52.010;5.420;2023-07-02T14:41:55;7.88;;;4.40;;
72109;SDS011;59983;52.010;5.420;2023-07-02T14:44:22;6.47;;;4.07;;
72109;SDS011;59983;52.010;5.420;2023-07-02T14:46:48;5.65;;;4.80;;
72109;SDS011;59983;52.010;5.420;2023-07-02T14:49:15;7.05;;;5.05;;
72109;SDS011;59983;52.010;5.420;2023-07-02T14:51:42;10.13;;;4.53;;